createdAt,value
2018-06-04T00:01:55.250Z,50.00
2018-06-04T00:04:22.658Z,44.80
2018-06-04T00:06:50.050Z,43.40
2018-06-04T00:09:17.632Z,42.00
2018-06-04T00:11:45.074Z,49.30
2018-06-04T00:14:12.461Z,39.57
2018-06-04T00:16:39.887Z,41.23
2018-06-04T00:19:07.307Z,32.23
2018-06-04T00:21:34.709Z,41.27
2018-06-04T00:24:02.097Z,36.97
2018-06-04T00:26:29.490Z,45.40
2018-06-04T00:28:56.886Z,40.73
2018-06-04T00:31:24.260Z,32.63
2018-06-04T00:33:51.635Z,26.37
2018-06-04T00:36:19.037Z,33.23
2018-06-04T00:38:46.416Z,40.07
2018-06-04T00:41:13.785Z,29.03
2018-06-04T00:43:41.183Z,39.07
2018-06-04T00:46:08.584Z,32.47
2018-06-04T00:48:37.090Z,29.10
2018-06-04T00:51:04.482Z,35.00
2018-06-04T00:53:32.038Z,28.63
2018-06-04T00:56:11.080Z,31.83
2018-06-04T00:58:38.485Z,37.23
2018-06-04T01:01:05.893Z,34.13
2018-06-04T01:03:33.301Z,34.07
2018-06-04T01:06:00.681Z,36.20
2018-06-04T01:08:28.041Z,33.47
2018-06-04T01:10:55.435Z,53.10
2018-06-04T01:13:22.838Z,44.83
2018-06-04T01:15:50.244Z,67.87
2018-06-04T01:18:17.638Z,44.00
2018-06-04T01:20:45.034Z,36.80
2018-06-04T01:23:12.429Z,243.77
2018-06-04T01:25:39.811Z,48.17
2018-06-04T01:28:07.245Z,24.77
2018-06-04T01:30:34.630Z,29.47
2018-06-04T01:33:02.014Z,81.07
2018-06-04T01:35:29.402Z,51.60
2018-06-04T01:37:56.772Z,117.27
2018-06-04T01:40:24.191Z,315.17
2018-06-04T01:42:51.561Z,374.63
2018-06-04T01:45:18.941Z,301.67
2018-06-04T01:47:46.336Z,360.50
2018-06-04T01:50:13.731Z,55.70
2018-06-04T01:52:41.146Z,74.97
2018-06-04T01:55:08.541Z,79.43
2018-06-04T01:57:35.970Z,73.27
2018-06-04T02:00:03.528Z,71.37
2018-06-04T02:02:30.901Z,46.20
2018-06-04T02:04:58.292Z,59.13
2018-06-04T02:07:25.652Z,51.50
2018-06-04T02:09:53.073Z,58.07
2018-06-04T02:12:20.470Z,58.07
2018-06-04T02:14:48.054Z,55.17
2018-06-04T02:17:15.433Z,48.03
2018-06-04T02:19:42.837Z,87.37
2018-06-04T02:22:10.543Z,87.60
2018-06-04T02:24:37.922Z,60.53
2018-06-04T02:27:05.321Z,66.57
2018-06-04T02:29:32.769Z,66.27
2018-06-04T02:32:00.198Z,54.90
2018-06-04T02:34:27.586Z,49.83
2018-06-04T02:36:54.952Z,51.03
2018-06-04T02:39:22.341Z,47.43
2018-06-04T02:41:49.733Z,39.90
2018-06-04T02:44:17.145Z,38.67
2018-06-04T02:46:44.550Z,40.33
2018-06-04T02:49:11.947Z,40.37
2018-06-04T02:51:39.343Z,39.80
2018-06-04T02:54:06.734Z,34.67
2018-06-04T02:56:34.093Z,33.57
2018-06-04T02:59:01.483Z,39.37
2018-06-04T03:01:28.865Z,38.93
2018-06-04T03:03:56.248Z,38.30
2018-06-04T03:06:23.662Z,37.90
2018-06-04T03:08:51.065Z,36.53
2018-06-04T03:11:18.461Z,30.53
2018-06-04T03:13:46.059Z,33.10
2018-06-04T03:16:13.458Z,27.33
2018-06-04T03:18:40.845Z,30.47
2018-06-04T03:21:08.213Z,26.17
2018-06-04T03:23:35.628Z,32.73
2018-06-04T03:26:02.987Z,26.33
2018-06-04T03:28:30.389Z,27.00
2018-06-04T03:30:57.786Z,28.97
2018-06-04T03:33:25.177Z,26.00
2018-06-04T03:35:52.564Z,26.57
2018-06-04T03:38:19.953Z,27.03
2018-06-04T03:40:47.341Z,24.63
2018-06-04T03:43:14.709Z,22.80
2018-06-04T03:45:42.097Z,28.43
2018-06-04T03:48:09.489Z,22.67
2018-06-04T03:50:36.870Z,21.87
2018-06-04T03:53:04.249Z,27.13
2018-06-04T03:55:31.627Z,23.27
2018-06-04T03:57:59.029Z,22.80
2018-06-04T04:00:26.400Z,20.00
2018-06-04T04:02:53.865Z,21.93
2018-06-04T04:05:21.272Z,18.10
2018-06-04T04:07:48.632Z,21.43
2018-06-04T04:10:16.030Z,21.23
2018-06-04T04:12:43.394Z,20.00
2018-06-04T04:15:10.789Z,23.80
2018-06-04T04:17:38.178Z,19.37
2018-06-04T04:20:05.782Z,21.83
2018-06-04T04:22:33.144Z,19.53
2018-06-04T04:25:00.535Z,18.83
2018-06-04T04:27:27.917Z,21.10
2018-06-04T04:29:55.305Z,17.57
2018-06-04T04:32:22.693Z,17.57
2018-06-04T04:34:50.040Z,19.20
2018-06-04T04:37:17.441Z,19.60
2018-06-04T04:39:44.821Z,15.80
2018-06-04T04:42:12.208Z,14.23
2018-06-04T04:44:39.611Z,18.30
2018-06-04T04:47:06.997Z,15.30
2018-06-04T04:49:34.366Z,15.17
2018-06-04T04:52:01.918Z,15.37
2018-06-04T04:54:29.328Z,13.47
2018-06-04T04:56:56.715Z,13.00
2018-06-04T04:59:24.111Z,13.63
2018-06-04T05:01:51.517Z,14.17
2018-06-04T05:04:18.893Z,14.67
2018-06-04T05:06:46.298Z,14.63
2018-06-04T05:09:13.666Z,15.23
2018-06-04T05:11:41.049Z,13.43
2018-06-04T05:14:08.439Z,12.57
2018-06-04T05:16:35.816Z,12.43
2018-06-04T05:19:03.275Z,16.57
2018-06-04T05:21:30.671Z,11.40
2018-06-04T05:23:58.185Z,14.23
2018-06-04T05:26:25.590Z,15.50
2018-06-04T05:28:52.985Z,13.37
2018-06-04T05:31:20.399Z,13.93
2018-06-04T05:33:47.784Z,12.97
2018-06-04T05:36:15.172Z,13.73
2018-06-04T05:38:42.548Z,13.40
2018-06-04T05:41:09.946Z,13.27
2018-06-04T05:43:37.366Z,12.67
2018-06-04T05:46:04.950Z,12.73
2018-06-04T05:48:32.337Z,16.13
2018-06-04T05:50:59.717Z,12.53
2018-06-04T05:53:27.206Z,14.67
2018-06-04T05:55:54.597Z,15.73
2018-06-04T05:58:22.041Z,13.17
2018-06-04T06:00:49.433Z,15.93
2018-06-04T06:03:16.814Z,12.97
2018-06-04T06:05:44.224Z,12.47
2018-06-04T06:08:11.621Z,12.83
2018-06-04T06:10:39.030Z,14.03
2018-06-04T06:13:06.437Z,11.33
2018-06-04T06:15:33.815Z,12.47
2018-06-04T06:18:01.210Z,11.90
2018-06-04T06:20:28.592Z,16.37
2018-06-04T06:22:55.977Z,14.97
2018-06-04T06:25:23.353Z,14.47
2018-06-04T06:27:50.752Z,11.73
2018-06-04T06:30:18.134Z,12.60
2018-06-04T06:32:45.512Z,14.00
2018-06-04T06:35:12.901Z,11.67
2018-06-04T06:37:40.318Z,9.43
2018-06-04T06:40:07.666Z,13.73
2018-06-04T06:42:35.053Z,11.13
2018-06-04T06:45:02.462Z,13.57
2018-06-04T06:47:29.871Z,10.87
2018-06-04T06:49:57.258Z,9.40
2018-06-04T06:52:24.649Z,11.47
2018-06-04T06:54:52.045Z,12.63
2018-06-04T06:57:19.424Z,14.03
2018-06-04T06:59:46.848Z,10.00
2018-06-04T07:02:14.235Z,10.00
2018-06-04T07:04:41.657Z,12.50
2018-06-04T07:07:09.051Z,12.17
2018-06-04T07:09:36.422Z,11.27
2018-06-04T07:12:03.822Z,11.07
2018-06-04T07:14:31.233Z,10.13
2018-06-04T07:16:58.625Z,9.40
2018-06-04T07:19:26.020Z,12.23
2018-06-04T07:21:53.417Z,10.83
2018-06-04T07:24:20.812Z,9.67
2018-06-04T07:26:48.243Z,10.10
2018-06-04T07:29:15.590Z,10.00
2018-06-04T07:31:42.993Z,9.90
2018-06-04T07:34:10.358Z,9.57
2018-06-04T07:36:37.752Z,10.40
2018-06-04T07:39:07.134Z,12.67
2018-06-04T07:41:34.562Z,10.30
2018-06-04T07:44:02.023Z,8.53
2018-06-04T07:46:29.389Z,9.77
2018-06-04T07:48:56.795Z,10.57
2018-06-04T07:51:24.213Z,9.13
2018-06-04T07:53:51.612Z,9.67
2018-06-04T07:56:19.034Z,8.77
2018-06-04T07:58:46.741Z,11.13
2018-06-04T08:01:14.142Z,9.93
2018-06-04T08:03:41.590Z,10.93
2018-06-04T08:06:09.006Z,14.40
2018-06-04T08:08:36.358Z,9.23
2018-06-04T08:11:03.758Z,11.10
2018-06-04T08:13:31.193Z,8.53
2018-06-04T08:15:58.619Z,12.47
2018-06-04T08:18:26.013Z,9.87
2018-06-04T08:20:53.414Z,9.80
2018-06-04T08:23:20.813Z,11.83
2018-06-04T08:25:48.197Z,9.37
2018-06-04T08:28:15.588Z,13.90
2018-06-04T08:30:42.974Z,10.27
2018-06-04T08:33:10.383Z,13.83
2018-06-04T08:35:37.772Z,12.50
2018-06-04T08:38:05.209Z,7.53
2018-06-04T08:40:32.585Z,11.30
2018-06-04T08:42:59.977Z,13.40
2018-06-04T08:45:27.394Z,9.90
2018-06-04T08:47:54.778Z,12.67
2018-06-04T08:50:22.175Z,10.80
2018-06-04T08:52:49.565Z,9.37
2018-06-04T08:55:16.958Z,11.07
2018-06-04T08:57:44.362Z,9.07
2018-06-04T09:00:11.772Z,12.63
2018-06-04T09:02:39.170Z,11.23
2018-06-04T09:05:06.603Z,13.23
2018-06-04T09:07:34.068Z,15.80
2018-06-04T09:10:01.494Z,11.77
2018-06-04T09:12:28.870Z,11.17
2018-06-04T09:14:56.263Z,9.47
2018-06-04T09:17:23.682Z,11.20
2018-06-04T09:19:51.080Z,7.87
2018-06-04T09:22:18.493Z,11.90
2018-06-04T09:24:45.881Z,7.07
2018-06-04T09:27:13.286Z,11.47
2018-06-04T09:29:40.648Z,9.73
2018-06-04T09:32:08.026Z,12.33
2018-06-04T09:34:35.426Z,8.80
2018-06-04T09:37:02.816Z,10.80
2018-06-04T09:39:30.224Z,9.23
2018-06-04T09:41:57.618Z,11.27
2018-06-04T09:44:25.023Z,8.80
2018-06-04T09:46:52.405Z,12.87
2018-06-04T09:49:19.804Z,10.10
2018-06-04T09:51:47.204Z,13.00
2018-06-04T09:54:14.610Z,11.50
2018-06-04T09:56:42.009Z,10.47
2018-06-04T09:59:10.102Z,9.23
2018-06-04T10:01:37.544Z,9.90
2018-06-04T10:04:04.909Z,10.03
2018-06-04T10:06:32.281Z,11.17
2018-06-04T10:08:59.681Z,12.00
2018-06-04T10:11:27.057Z,10.23
2018-06-04T10:13:54.453Z,12.13
2018-06-04T10:16:21.842Z,12.53
2018-06-04T10:18:49.249Z,12.50
2018-06-04T10:21:16.645Z,9.43
2018-06-04T10:23:44.033Z,10.67
2018-06-04T10:26:11.435Z,13.73
2018-06-04T10:28:38.846Z,16.27
2018-06-04T10:31:06.229Z,13.37
2018-06-04T10:33:33.664Z,14.63
2018-06-04T10:36:01.010Z,15.93
2018-06-04T10:38:28.381Z,12.57
2018-06-04T10:40:55.805Z,11.97
2018-06-04T10:43:23.209Z,11.10
2018-06-04T10:45:50.617Z,13.73
2018-06-04T10:48:18.023Z,11.83
2018-06-04T10:50:45.408Z,13.73
2018-06-04T10:53:12.804Z,16.73
2018-06-04T10:55:40.209Z,16.90
2018-06-04T10:58:07.605Z,12.33
2018-06-04T11:00:34.993Z,13.70
2018-06-04T11:03:02.402Z,11.50
2018-06-04T11:05:29.843Z,14.90
2018-06-04T11:07:57.238Z,12.60
2018-06-04T11:10:24.642Z,14.33
2018-06-04T11:12:52.050Z,10.93
2018-06-04T11:15:19.451Z,11.57
2018-06-04T11:17:46.862Z,14.00
2018-06-04T11:20:14.270Z,11.10
2018-06-04T11:22:41.702Z,14.07
2018-06-04T11:25:09.134Z,13.73
2018-06-04T11:27:36.494Z,9.60
2018-06-04T11:30:04.477Z,10.70
2018-06-04T11:32:31.864Z,14.00
2018-06-04T11:34:59.213Z,12.73
2018-06-04T11:37:26.620Z,14.17
2018-06-04T11:39:54.002Z,11.10
2018-06-04T11:42:21.389Z,15.50
2018-06-04T11:44:48.768Z,14.10
2018-06-04T11:47:16.159Z,12.33
2018-06-04T11:49:43.549Z,14.90
2018-06-04T11:52:11.025Z,11.67
2018-06-04T11:54:38.418Z,13.20
2018-06-04T11:57:05.827Z,14.10
2018-06-04T11:59:33.460Z,11.10
2018-06-04T12:02:00.849Z,13.50
2018-06-04T12:04:28.228Z,15.13
2018-06-04T12:06:55.632Z,13.17
2018-06-04T12:09:23.013Z,10.33
2018-06-04T12:11:50.445Z,10.67
2018-06-04T12:14:17.825Z,11.43
2018-06-04T12:16:45.260Z,10.60
2018-06-04T12:19:12.649Z,12.17
2018-06-04T12:21:40.029Z,14.30
2018-06-04T12:24:07.435Z,16.67
2018-06-04T12:26:34.800Z,12.57
2018-06-04T12:29:02.265Z,12.27
2018-06-04T12:31:29.670Z,12.40
2018-06-04T12:33:57.079Z,10.30
2018-06-04T12:36:24.483Z,12.80
2018-06-04T12:38:51.851Z,11.20
2018-06-04T12:41:19.254Z,11.57
2018-06-04T12:43:46.636Z,12.63
2018-06-04T12:46:14.022Z,15.53
2018-06-04T12:48:41.401Z,9.80
2018-06-04T12:51:08.798Z,12.90
2018-06-04T12:53:36.189Z,12.87
2018-06-04T12:56:03.589Z,13.70
2018-06-04T12:58:30.982Z,12.63
2018-06-04T13:00:58.392Z,15.27
2018-06-04T13:03:25.765Z,14.10
2018-06-04T13:05:53.161Z,12.10
2018-06-04T13:08:20.560Z,9.73
2018-06-04T13:10:47.973Z,11.90
2018-06-04T13:13:15.338Z,13.77
2018-06-04T13:15:42.802Z,13.70
2018-06-04T13:18:10.200Z,13.13
2018-06-04T13:20:37.585Z,9.27
2018-06-04T13:23:05.008Z,12.97
2018-06-04T13:25:32.422Z,10.73
2018-06-04T13:27:59.825Z,11.87
2018-06-04T13:30:27.201Z,11.37
2018-06-04T13:32:54.624Z,15.30
2018-06-04T13:35:22.006Z,13.13
2018-06-04T13:37:49.391Z,16.10
2018-06-04T13:40:16.800Z,10.47
2018-06-04T13:42:44.181Z,13.77
2018-06-04T13:45:11.573Z,11.87
2018-06-04T13:47:38.980Z,11.63
2018-06-04T13:50:06.601Z,13.03
2018-06-04T13:52:34.009Z,14.83
2018-06-04T13:55:01.397Z,10.83
2018-06-04T13:57:28.793Z,13.43
2018-06-04T13:59:56.944Z,12.80
2018-06-04T14:02:24.318Z,13.67
2018-06-04T14:04:51.706Z,12.57
2018-06-04T14:07:19.109Z,12.73
2018-06-04T14:09:46.501Z,11.50
2018-06-04T14:12:13.877Z,13.97
2018-06-04T14:14:41.273Z,17.97
2018-06-04T14:17:08.678Z,12.53
2018-06-04T14:19:36.097Z,15.37
2018-06-04T14:22:03.706Z,13.87
2018-06-04T14:24:31.108Z,13.97
2018-06-04T14:26:58.525Z,13.10
2018-06-04T14:29:25.934Z,13.00
2018-06-04T14:31:53.357Z,10.57
2018-06-04T14:34:20.736Z,10.30
2018-06-04T14:36:48.198Z,10.60
2018-06-04T14:39:15.571Z,15.40
2018-06-04T14:41:42.972Z,11.63
2018-06-04T14:44:10.370Z,10.07
2018-06-04T14:46:37.777Z,11.30
2018-06-04T14:49:05.187Z,14.30
2018-06-04T14:51:32.607Z,11.37
2018-06-04T14:54:00.008Z,12.03
2018-06-04T14:56:27.434Z,10.03
2018-06-04T14:58:54.808Z,13.87
2018-06-04T15:01:22.197Z,12.37
2018-06-04T15:03:49.597Z,13.60
2018-06-04T15:06:17.013Z,10.77
2018-06-04T15:08:44.409Z,13.87
2018-06-04T15:11:11.806Z,11.27
2018-06-04T15:13:39.204Z,12.43
2018-06-04T15:16:06.638Z,12.50
2018-06-04T15:18:34.046Z,17.13
2018-06-04T15:21:01.465Z,10.70
2018-06-04T15:23:28.857Z,9.03
2018-06-04T15:25:56.268Z,28.50
2018-06-04T15:28:23.652Z,11.97
2018-06-04T15:30:51.054Z,10.73
2018-06-04T15:33:18.444Z,11.37
2018-06-04T15:35:45.893Z,9.10
2018-06-04T15:38:13.294Z,10.03
2018-06-04T15:40:40.701Z,10.20
2018-06-04T15:43:08.106Z,13.77
2018-06-04T15:45:35.552Z,12.20
2018-06-04T15:48:02.928Z,16.13
2018-06-04T15:50:30.330Z,14.17
2018-06-04T15:52:57.717Z,10.63
2018-06-04T15:55:25.137Z,11.40
2018-06-04T15:57:52.525Z,11.77
2018-06-04T16:00:20.008Z,13.07
2018-06-04T16:02:47.428Z,10.67
2018-06-04T16:05:14.791Z,11.57
2018-06-04T16:07:42.150Z,14.63
2018-06-04T16:10:09.534Z,13.53
2018-06-04T16:12:36.950Z,12.53
2018-06-04T16:15:04.427Z,10.90
2018-06-04T16:17:31.842Z,14.43
2018-06-04T16:19:59.212Z,13.53
2018-06-04T16:22:26.602Z,11.33
2018-06-04T16:24:53.997Z,12.80
2018-06-04T16:27:21.408Z,16.57
2018-06-04T16:29:48.817Z,10.23
2018-06-04T16:32:16.214Z,13.37
2018-06-04T16:34:43.633Z,13.87
2018-06-04T16:37:11.013Z,16.60
2018-06-04T16:39:38.446Z,12.83
2018-06-04T16:42:05.809Z,11.80
2018-06-04T16:44:33.226Z,11.70
2018-06-04T16:47:00.633Z,13.70
2018-06-04T16:49:28.041Z,13.40
2018-06-04T16:51:55.424Z,12.60
2018-06-04T16:54:22.837Z,12.83
2018-06-04T16:56:50.233Z,12.03
2018-06-04T16:59:17.862Z,14.13
2018-06-04T17:01:45.217Z,11.27
2018-06-04T17:04:12.596Z,11.30
2018-06-04T17:06:39.984Z,13.83
2018-06-04T17:09:07.504Z,14.27
2018-06-04T17:11:34.945Z,15.87
2018-06-04T17:14:02.523Z,11.90
2018-06-04T17:16:29.937Z,13.43
2018-06-04T17:18:57.355Z,12.23
2018-06-04T17:21:24.779Z,13.47
2018-06-04T17:23:52.196Z,10.27
2018-06-04T17:26:19.666Z,10.23
2018-06-04T17:28:47.072Z,15.23
2018-06-04T17:31:14.469Z,11.67
2018-06-04T17:33:41.848Z,11.20
2018-06-04T17:36:09.249Z,9.50
2018-06-04T17:38:36.653Z,10.80
2018-06-04T17:41:04.069Z,13.27
2018-06-04T17:43:31.466Z,14.27
2018-06-04T17:45:58.885Z,13.00
2018-06-04T17:48:26.297Z,12.23
2018-06-04T17:50:53.681Z,11.93
2018-06-04T17:53:21.090Z,12.57
2018-06-04T17:55:48.473Z,13.13
2018-06-04T17:58:15.848Z,15.03
2018-06-04T18:00:43.428Z,12.43
2018-06-04T18:03:10.808Z,12.73
2018-06-04T18:05:38.214Z,12.63
2018-06-04T18:08:05.630Z,16.90
2018-06-04T18:10:33.037Z,13.03
2018-06-04T18:13:00.434Z,12.30
2018-06-04T18:15:27.833Z,12.83
2018-06-04T18:17:55.213Z,10.50
2018-06-04T18:20:22.641Z,15.17
2018-06-04T18:22:50.017Z,9.60
2018-06-04T18:25:17.414Z,14.93
2018-06-04T18:27:44.808Z,12.70
2018-06-04T18:30:12.189Z,17.33
2018-06-04T18:32:39.655Z,11.80
2018-06-04T18:35:07.065Z,13.20
2018-06-04T18:37:34.478Z,14.77
2018-06-04T18:40:02.009Z,11.23
2018-06-04T18:42:29.415Z,16.27
2018-06-04T18:44:56.834Z,12.80
2018-06-04T18:47:24.279Z,12.93
2018-06-04T18:49:51.697Z,15.13
2018-06-04T18:52:19.080Z,11.47
2018-06-04T18:54:46.498Z,13.53
2018-06-04T18:57:13.889Z,17.87
2018-06-04T18:59:41.328Z,13.57
2018-06-04T19:02:08.726Z,14.43
2018-06-04T19:04:36.137Z,13.20
2018-06-04T19:07:03.546Z,11.57
2018-06-04T19:09:30.941Z,12.20
2018-06-04T19:11:58.365Z,13.97
2018-06-04T19:14:25.757Z,14.47
2018-06-04T19:16:53.177Z,14.33
2018-06-04T19:19:20.579Z,12.87
2018-06-04T19:21:47.976Z,15.37
2018-06-04T19:24:15.364Z,13.50
2018-06-04T19:26:42.776Z,15.93
2018-06-04T19:29:10.177Z,13.33
2018-06-04T19:31:37.595Z,14.00
2018-06-04T19:34:05.249Z,11.77
2018-06-04T19:36:32.664Z,14.57
2018-06-04T19:39:00.065Z,13.43
2018-06-04T19:41:27.508Z,8.97
2018-06-04T19:43:54.942Z,11.20
2018-06-04T19:46:22.456Z,11.47
2018-06-04T19:48:49.883Z,6.90
2018-06-04T19:51:17.298Z,7.70
2018-06-04T19:53:44.711Z,4.67
2018-06-04T19:56:12.117Z,5.70
2018-06-04T19:58:39.526Z,4.87
2018-06-04T20:01:07.828Z,4.23
2018-06-04T20:03:35.214Z,4.83
2018-06-04T20:06:02.613Z,4.27
2018-06-04T20:08:30.040Z,4.13
2018-06-04T20:10:57.418Z,7.10
2018-06-04T20:13:24.850Z,2.63
2018-06-04T20:15:52.245Z,4.57
2018-06-04T20:18:19.631Z,5.53
2018-06-04T20:20:47.041Z,4.20
2018-06-04T20:23:14.457Z,2.33
2018-06-04T20:25:41.892Z,2.27
2018-06-04T20:28:09.317Z,5.90
2018-06-04T20:30:36.726Z,2.30
2018-06-04T20:33:04.194Z,2.63
2018-06-04T20:35:31.572Z,3.43
2018-06-04T20:37:58.970Z,3.97
2018-06-04T20:40:26.353Z,3.30
2018-06-04T20:42:53.752Z,2.07
2018-06-04T20:45:21.142Z,1.80
2018-06-04T20:47:48.539Z,1.60
2018-06-04T20:50:15.985Z,2.40
2018-06-04T20:52:43.398Z,4.30
2018-06-04T20:55:10.843Z,1.67
2018-06-04T20:57:38.270Z,1.73
2018-06-04T21:00:05.762Z,2.27
2018-06-04T21:02:33.149Z,1.40
2018-06-04T21:05:00.551Z,3.77
2018-06-04T21:07:28.149Z,2.70
2018-06-04T21:09:55.560Z,2.00
2018-06-04T21:12:22.987Z,1.33
2018-06-04T21:14:50.477Z,2.30
2018-06-04T21:17:17.869Z,2.40
2018-06-04T21:19:45.272Z,2.80
2018-06-04T21:22:12.690Z,6.00
2018-06-04T21:24:40.093Z,3.07
2018-06-04T21:27:07.482Z,3.63
2018-06-04T21:29:34.917Z,3.50
2018-06-04T21:32:02.332Z,3.10
2018-06-04T21:34:29.775Z,2.83
2018-06-04T21:36:57.140Z,1.77
2018-06-04T21:39:24.532Z,1.60
2018-06-04T21:41:51.930Z,3.20
2018-06-04T21:44:19.312Z,1.40
2018-06-04T21:46:46.745Z,4.37
2018-06-04T21:49:19.411Z,2.53
2018-06-04T21:51:47.085Z,2.30
2018-06-04T21:54:14.497Z,4.17
2018-06-04T21:56:41.881Z,2.77
2018-06-04T21:59:09.340Z,2.17
2018-06-04T22:01:37.201Z,5.33
2018-06-04T22:04:04.720Z,4.00
2018-06-04T22:06:32.102Z,3.43
2018-06-04T22:08:59.536Z,2.80
2018-06-04T22:11:26.940Z,2.53
2018-06-04T22:13:54.357Z,2.40
2018-06-04T22:16:21.751Z,2.73
2018-06-04T22:18:49.163Z,2.00
2018-06-04T22:21:16.589Z,3.50
2018-06-04T22:23:43.985Z,4.40
2018-06-04T22:26:11.359Z,2.47
2018-06-04T22:28:38.761Z,5.07
2018-06-04T22:31:06.190Z,3.03
2018-06-04T22:33:33.621Z,3.40
2018-06-04T22:36:01.058Z,3.57
2018-06-04T22:38:28.485Z,5.47
2018-06-04T22:40:55.905Z,4.47
2018-06-04T22:43:23.334Z,2.27
2018-06-04T22:45:50.719Z,2.37
2018-06-04T22:48:18.108Z,3.03
2018-06-04T22:50:45.511Z,2.97
2018-06-04T22:53:12.913Z,2.30
2018-06-04T22:55:40.322Z,2.33
2018-06-04T22:58:07.726Z,3.13
2018-06-04T23:00:35.138Z,3.33
2018-06-04T23:03:02.905Z,4.13
2018-06-04T23:05:30.325Z,4.10
2018-06-04T23:07:57.721Z,4.47
2018-06-04T23:10:25.165Z,3.07
2018-06-04T23:12:52.566Z,3.47
2018-06-04T23:15:19.962Z,2.57
2018-06-04T23:17:47.393Z,2.47
2018-06-04T23:20:14.797Z,3.67
2018-06-04T23:22:42.207Z,2.00
2018-06-04T23:25:09.560Z,4.37
2018-06-04T23:27:36.944Z,2.27
2018-06-04T23:30:04.357Z,1.73
2018-06-04T23:32:31.774Z,2.30
2018-06-04T23:34:59.193Z,4.00
2018-06-04T23:37:26.630Z,2.10
2018-06-04T23:39:54.009Z,4.43
2018-06-04T23:42:21.414Z,3.53
2018-06-04T23:44:48.787Z,2.80
2018-06-04T23:47:16.214Z,1.43
2018-06-04T23:49:43.618Z,4.43
2018-06-04T23:52:11.033Z,1.70
2018-06-04T23:54:38.428Z,2.20
2018-06-04T23:57:05.806Z,3.10
2018-06-04T23:59:33.267Z,1.73
